Date,TemperatureHighF,TemperatureAvgF,TemperatureLowF,DewpointHighF,DewpointAvgF,DewpointLowF,HumidityHigh,HumidityAvg,HumidityLow,PressureMaxIn,PressureMinIn,WindSpeedMaxMPH,WindSpeedAvgMPH,GustSpeedMaxMPH,PrecipitationSumIn
2013-1-9,53.2,49.7,45.4,48.2,46.0,42.9,94,88,76,30.34,30.29,8,2,14,0.02
2013-1-10,43.3,43.2,43.1,31.7,31.6,31.5,64,64,63,30.38,30.37,1,1,13,0.00
2013-1-13,62.5,62.4,62.3,55.5,55.3,55.1,78,78,77,30.03,30.02,3,2,12,0.00
2013-1-14,47.2,46.4,45.5,46.2,45.4,44.4,97,96,95,30.13,30.05,4,1,8,0.09
2013-1-15,39.6,37.4,33.8,38.8,36.5,32.9,97,97,96,30.17,29.99,6,3,13,0.00
2013-1-16,55.2,43.9,33.7,51.6,42.6,32.9,98,95,86,30.01,29.88,5,1,11,0.00
2013-1-17,41.9,35.4,31.0,40.6,34.0,30.2,97,95,87,30.01,29.89,5,2,11,0.00
2013-1-20,43.8,39.9,33.3,31.3,28.3,21.7,72,63,57,30.01,29.94,9,4,29,0.01
2013-1-21,43.9,39.7,27.2,25.3,23.6,18.7,71,53,43,29.97,29.82,10,5,21,0.00
2013-1-22,20.0,17.0,12.4,0.4,-1.9,-3.7,55,43,35,30.08,30.01,8,4,22,0.00
2013-1-23,29.0,24.3,16.0,20.1,11.0,-0.1,71,57,41,30.14,29.96,6,4,16,0.00
2013-1-24,27.0,17.7,9.0,17.3,7.0,2.5,81,63,47,30.31,29.88,12,4,33,0.00
2013-1-25,28.5,16.9,9.3,27.0,13.0,3.8,95,85,65,30.28,29.91,4,1,10,0.00
2013-1-26,33.7,27.9,23.0,24.4,21.6,18.9,85,78,66,30.24,30.06,9,4,20,0.01
2013-1-27,33.5,29.7,21.2,25.3,23.9,17.7,86,79,72,30.33,30.25,2,0,9,0.00
2013-1-28,59.2,49.5,42.7,44.2,41.6,37.3,89,75,56,30.23,30.12,5,1,10,0.05
2013-1-29,68.2,53.0,41.1,54.8,47.0,39.4,96,82,51,30.15,30.00,5,2,11,0.00
2013-1-30,61.3,56.1,44.8,58.4,54.2,43.6,98,93,87,30.00,29.39,11,4,28,2.83
2013-1-31,46.8,32.7,27.3,43.7,25.8,17.2,93,76,62,29.83,29.41,10,6,29,0.00
2013-2-1,33.9,19.8,13.6,28.3,10.6,4.1,92,67,55,30.16,29.72,11,6,31,0.00
2013-2-2,32.0,21.9,7.7,25.8,14.7,4.4,95,75,47,30.16,29.89,4,1,13,0.00
2013-2-3,33.4,28.7,24.9,29.2,23.8,20.0,93,82,75,29.87,29.75,10,5,30,0.00
2013-2-4,35.7,30.5,25.5,23.9,20.7,18.3,75,67,60,29.98,29.90,4,3,28,0.00
2013-2-6,46.7,39.3,27.4,29.9,26.0,23.1,86,61,41,30.16,30.08,4,2,14,0.00
2013-2-7,33.5,32.0,31.3,32.5,30.8,29.9,96,95,94,30.18,29.97,5,3,10,0.01
2013-2-8,32.6,31.7,30.8,31.6,30.8,29.8,97,96,96,29.97,29.84,4,1,11,0.00
2013-2-9,26.0,25.1,23.9,19.1,18.3,17.1,80,75,72,30.24,30.22,0,0,2,0.00
2013-2-10,45.5,40.8,23.5,24.1,21.7,17.0,76,47,39,30.29,30.14,3,2,13,0.00
2013-2-11,56.9,50.4,44.4,50.8,42.5,29.6,95,75,50,29.98,29.87,9,5,23,0.06
2013-2-12,49.8,42.1,34.9,28.7,23.8,19.5,64,49,32,29.97,29.86,11,5,28,0.00
2013-2-13,40.7,39.0,38.1,39.9,38.0,37.1,97,96,96,29.70,29.57,3,1,9,0.14
2013-2-14,47.1,38.6,28.0,29.4,26.3,24.1,91,63,42,29.95,29.88,5,2,13,0.00
2013-2-15,52.6,37.8,26.7,37.2,30.8,24.5,96,78,46,29.99,29.87,6,2,14,0.03
2013-2-16,29.4,25.6,20.2,24.2,18.4,13.0,85,74,58,29.85,29.75,6,3,17,0.00
2013-2-17,23.7,18.5,12.2,15.5,8.8,4.3,89,67,49,30.05,29.79,11,6,31,0.00
2013-2-18,48.2,30.8,12.5,25.2,18.3,7.7,85,62,38,30.20,30.03,4,1,15,0.00
2013-2-19,45.6,38.6,34.3,40.0,29.3,12.7,93,71,39,30.05,29.75,9,4,25,0.07
2013-2-20,37.3,28.6,23.9,13.2,11.0,7.1,57,49,28,30.02,29.88,10,7,23,0.00
2013-2-21,43.2,36.6,26.5,17.4,15.1,12.4,61,42,29,30.08,30.04,8,4,23,0.00
2013-2-22,28.5,28.4,28.3,26.5,26.4,26.3,92,92,92,30.18,30.13,3,2,9,0.00
2013-2-25,36.7,36.0,35.2,25.9,25.4,24.3,68,65,63,30.02,30.00,4,2,8,0.00
2013-2-26,34.5,32.9,30.3,33.7,31.6,28.8,97,95,94,29.85,29.58,7,2,17,0.13
2013-2-27,43.1,38.5,32.7,34.1,32.3,29.8,90,78,69,29.71,29.67,7,4,19,0.04
2013-2-28,33.9,31.7,29.2,27.4,25.9,23.8,90,79,68,29.70,29.65,9,5,21,0.00
2013-3-1,33.6,31.7,30.2,25.9,24.3,23.1,77,74,71,29.81,29.76,6,4,16,0.00
2013-3-2,29.7,27.1,23.8,23.0,21.1,16.4,84,78,73,29.81,29.75,8,4,22,0.00
2013-3-3,25.8,24.5,22.7,19.4,18.2,16.9,86,77,70,29.83,29.79,8,6,20,0.00
2013-3-4,40.8,35.0,24.6,16.6,13.1,9.6,71,42,28,29.97,29.92,8,4,26,0.00
2013-3-5,46.9,39.8,31.7,32.8,26.7,21.8,92,61,43,29.94,29.71,5,2,14,0.13
2013-3-6,30.8,28.4,25.1,26.4,24.4,22.0,93,85,79,29.88,29.57,14,8,29,0.00
2013-3-7,33.8,31.8,30.6,27.2,26.0,23.5,86,79,73,30.12,30.06,9,5,22,0.00
2013-3-8,42.1,38.5,34.0,27.1,25.3,22.8,66,59,52,30.18,30.12,10,6,23,0.03
2013-3-9,57.0,43.8,24.2,32.8,28.1,21.0,90,58,33,30.25,30.18,3,1,10,0.00
2013-3-10,59.0,43.5,32.1,35.0,30.0,25.6,80,61,39,30.22,30.13,4,1,11,0.00
2013-3-11,52.0,45.8,38.5,49.5,36.0,24.1,92,69,46,30.06,29.85,4,1,11,0.02
2013-3-12,51.4,44.8,36.9,49.7,37.4,29.8,95,76,60,29.91,29.82,10,5,26,0.62
2013-3-13,36.0,32.2,26.4,31.1,25.7,22.2,91,77,70,29.94,29.92,5,2,14,0.00
2013-3-14,27.0,23.9,23.1,16.4,16.0,15.3,75,72,61,30.12,30.01,10,9,28,0.00
2013-3-16,70.2,68.4,67.1,47.3,46.8,45.7,49,46,43,29.72,29.67,10,9,23,0.01
2013-3-17,40.5,36.5,33.0,39.4,35.6,32.2,97,97,96,30.03,29.96,6,4,23,0.15
2013-3-18,32.0,30.2,28.2,31.2,29.5,27.2,97,97,96,30.05,29.79,6,2,12,0.00
2013-3-19,52.3,46.9,39.3,32.0,21.4,4.5,67,38,22,29.95,29.82,10,8,29,0.14
2013-3-20,46.2,43.1,37.7,18.1,14.2,11.0,40,31,26,29.96,29.76,8,6,23,0.00
2013-3-21,27.5,23.2,20.4,16.7,13.6,9.3,85,67,47,29.77,29.70,9,5,22,0.00
2013-3-22,42.3,26.1,15.5,16.3,11.9,9.2,76,58,31,29.92,29.83,7,3,18,0.00
2013-3-23,41.3,30.5,24.1,27.7,20.7,17.2,87,68,42,29.95,29.85,3,0,14,0.00
2013-3-24,32.0,29.5,26.5,30.2,27.2,22.6,96,91,83,29.85,29.50,9,4,15,0.00
2013-3-25,33.4,31.5,29.0,28.1,25.0,23.0,86,76,67,29.66,29.51,10,7,25,0.08
2013-3-26,34.0,29.7,28.9,26.6,24.4,23.3,85,80,73,29.87,29.74,7,5,21,0.00
2013-3-27,33.8,33.5,32.9,25.4,25.2,24.9,72,71,71,30.09,30.08,5,4,9,0.04
2013-3-28,42.7,35.4,29.7,27.0,24.0,21.3,84,64,48,30.14,30.09,7,4,20,0.05
2013-3-29,51.3,44.0,33.1,28.6,26.0,23.4,76,50,35,30.21,30.10,7,4,20,0.00
2013-3-30,50.7,35.8,28.3,34.4,29.9,26.4,95,81,43,30.17,30.03,2,0,16,0.00
2013-3-31,56.2,49.2,40.4,49.8,42.6,30.2,97,78,66,30.03,29.78,7,2,22,0.23
2013-4-1,53.4,50.7,47.9,45.7,42.4,40.5,90,73,65,29.86,29.83,9,6,28,0.01
2013-4-2,46.3,35.1,28.8,25.8,20.7,11.9,83,59,25,30.06,29.95,8,3,20,0.00
2013-4-3,47.5,33.9,28.8,20.2,15.4,13.3,59,47,25,30.24,30.08,8,2,19,0.00
2013-4-4,35.3,31.4,27.8,30.5,21.4,12.8,95,69,44,30.23,29.98,6,2,15,0.00
2013-4-5,50.2,39.5,33.2,38.3,34.9,32.4,97,85,53,29.93,29.87,8,3,18,0.53
2013-4-6,59.2,45.8,28.1,35.7,31.4,25.8,94,61,39,30.18,30.05,4,1,18,0.00
2013-4-7,64.4,54.0,31.9,45.0,39.5,29.1,92,60,44,30.14,30.04,5,2,15,0.00
2013-4-8,72.7,67.7,60.1,51.1,47.0,42.1,63,48,35,30.12,30.02,5,3,15,0.00
2013-4-9,78.9,73.0,66.7,54.6,52.5,50.5,63,49,40,30.17,30.07,6,3,14,0.00
2013-4-10,79.2,66.8,52.1,56.8,54.1,49.8,93,65,44,30.10,29.97,6,2,18,0.00
2013-4-11,75.5,65.3,55.2,60.1,54.1,50.9,92,69,46,29.97,29.78,6,2,14,0.20
2013-4-12,68.5,63.3,55.9,61.4,55.9,38.5,95,79,42,29.79,29.69,10,4,18,1.20
2013-4-13,65.4,55.5,43.5,38.8,34.2,27.5,73,48,26,29.93,29.83,9,5,20,0.00
2013-4-14,49.2,42.8,38.5,38.1,36.4,34.4,86,78,65,30.07,30.05,0,0,20,0.00
2013-4-15,54.2,52.2,49.1,50.6,49.7,48.0,96,91,86,30.13,30.10,7,5,18,0.13
2013-4-16,72.7,66.4,57.0,59.7,58.1,56.4,98,76,62,30.26,30.18,5,2,11,0.00
2013-4-17,73.6,62.8,56.1,58.7,56.3,53.5,93,80,54,30.23,30.14,4,1,9,0.00
2013-4-18,72.3,67.7,63.0,60.8,57.3,52.4,90,70,55,30.15,30.03,5,2,14,0.00
2013-4-19,64.0,58.9,43.5,61.2,56.0,38.5,93,90,83,29.90,29.74,8,4,15,0.60
2013-4-20,53.2,46.0,36.3,38.1,30.7,25.0,82,57,35,30.19,29.86,9,5,25,0.00
2013-4-21,53.2,45.1,36.3,35.4,31.1,27.4,71,59,47,30.39,30.33,5,4,14,0.00
2013-4-22,53.6,41.5,31.4,32.6,29.8,22.7,92,66,33,30.36,30.24,7,4,16,0.00
2013-4-23,67.0,51.0,39.5,48.2,41.2,34.3,88,71,38,30.24,30.07,4,1,14,0.00
2013-4-24,69.2,66.5,63.0,55.3,52.4,48.0,76,61,51,30.01,29.94,6,4,17,0.00
2013-4-25,59.7,53.1,43.8,37.4,30.7,20.0,71,45,22,30.22,30.17,6,4,14,0.00
2013-4-26,62.9,59.1,49.6,39.2,36.1,33.5,63,42,35,30.36,30.27,4,2,17,0.00
2013-4-27,53.1,46.8,43.9,48.4,40.6,37.8,86,79,70,30.30,30.24,0,0,5,0.01
2013-4-28,51.7,49.4,48.3,50.3,47.8,46.5,96,95,93,30.18,30.12,2,1,9,0.55
2013-4-29,63.5,52.6,47.3,55.5,50.5,46.8,98,93,69,30.03,29.99,4,1,11,0.10
2013-4-30,63.9,57.6,52.9,55.5,53.4,51.8,97,86,73,30.19,30.02,6,2,12,0.00
2013-5-1,63.3,55.3,51.1,53.3,50.1,45.2,96,83,61,30.31,30.22,9,5,17,0.02
2013-5-2,59.1,53.2,47.0,51.9,48.0,40.3,91,83,72,30.31,30.23,7,3,15,0.00
2013-5-3,57.0,50.2,43.5,48.4,45.2,41.9,96,83,69,30.25,30.15,9,4,19,0.00
2013-5-4,57.0,45.8,40.2,46.2,41.8,38.1,94,87,64,30.16,30.06,10,6,19,0.00
2013-5-5,48.7,44.9,39.9,47.8,40.7,32.0,97,85,68,30.09,29.96,11,7,21,0.03
2013-5-6,53.7,50.4,47.6,52.6,49.5,46.5,97,96,93,29.94,29.85,10,6,25,0.85
2013-5-7,57.1,51.2,42.3,54.2,49.7,41.2,98,95,81,29.92,29.87,4,1,10,0.56
2013-5-8,56.9,47.9,39.8,52.8,46.9,39.0,98,96,84,29.96,29.89,3,0,8,0.67
2013-5-9,68.2,55.0,44.9,57.0,51.2,44.4,99,88,62,30.07,29.99,6,2,15,0.00
2013-5-10,76.2,64.5,48.4,59.7,55.0,47.3,98,74,48,30.07,29.97,6,2,17,0.37
2013-5-11,70.0,62.3,55.1,60.3,56.5,53.1,97,82,65,29.92,29.83,5,2,18,0.01
2013-5-12,56.4,49.9,40.0,52.9,38.6,30.5,89,67,42,30.02,29.85,9,3,25,0.00
2013-5-13,54.7,49.5,39.2,33.8,30.0,25.5,75,48,34,30.10,30.01,8,3,18,0.00
2013-5-14,62.0,44.0,29.6,39.9,33.4,28.3,97,71,35,30.17,30.12,5,2,18,0.00
2013-5-15,81.8,76.1,67.6,59.9,58.0,55.7,70,54,42,30.04,29.95,7,5,17,0.00
2013-5-16,75.4,71.4,63.4,58.5,56.7,54.9,77,60,54,30.02,29.97,7,4,17,0.00
2013-5-17,77.6,68.5,53.2,63.7,58.8,51.8,97,73,49,30.12,30.07,5,1,12,0.03
2013-5-18,66.6,61.5,58.7,63.0,60.1,57.9,98,96,88,30.17,30.10,4,1,10,0.47
2013-5-19,69.1,63.1,59.9,65.2,61.8,59.3,98,96,85,30.14,30.07,3,1,10,0.15
2013-5-20,77.3,64.9,56.8,66.9,61.9,56.2,99,90,68,30.13,30.04,4,1,10,0.05
2013-5-21,84.0,69.3,57.6,68.2,63.1,57.0,98,83,47,30.08,29.98,5,1,15,0.01
2013-5-22,80.1,70.0,60.5,70.2,63.8,59.1,96,82,56,30.02,29.93,5,2,14,0.14
2013-5-23,76.0,64.7,57.1,65.6,59.4,55.7,97,84,57,29.97,29.86,8,1,19,0.02
2013-5-24,56.0,50.8,44.2,43.4,37.7,34.2,79,61,47,30.16,30.07,9,5,27,0.00
2013-5-25,63.2,50.5,39.3,38.3,33.1,23.9,79,55,27,30.24,30.15,8,4,21,0.00
2013-5-26,66.7,54.5,45.6,44.7,40.7,35.6,83,62,32,30.23,30.17,5,2,14,0.00
2013-5-27,72.4,58.1,40.8,58.6,48.9,38.6,95,74,50,30.26,30.16,4,1,10,0.00
2013-5-28,77.9,62.1,54.2,62.1,56.7,51.9,96,84,54,30.22,30.15,4,1,12,0.00
2013-5-29,82.3,77.5,69.8,66.0,61.7,56.5,78,59,46,30.24,30.17,4,2,12,0.00
2013-5-30,81.1,67.4,52.4,64.1,59.4,51.3,98,78,39,30.27,30.20,4,1,8,0.00
2013-5-31,79.4,67.6,53.6,65.4,60.1,52.8,98,79,55,30.23,30.14,4,1,14,0.00
2013-6-1,80.3,73.6,59.3,66.8,63.7,58.1,97,73,52,30.14,30.05,6,3,17,0.00
2013-6-2,74.3,68.3,62.9,68.2,64.1,60.9,96,87,78,30.03,29.98,6,2,17,0.73
2013-6-3,74.1,67.3,62.8,64.5,62.6,60.7,97,86,69,29.96,29.92,5,2,13,0.20
2013-6-4,59.8,54.1,50.3,57.0,53.3,49.5,98,97,92,30.07,30.02,2,0,4,0.01
2013-6-5,67.2,63.3,61.9,61.8,60.7,59.9,93,91,83,30.14,30.06,2,1,9,0.00
2013-6-6,64.0,60.7,58.6,63.1,59.8,57.8,98,97,96,30.00,29.86,4,1,16,1.69
2013-6-7,69.2,66.3,62.7,66.3,64.2,62.1,98,93,88,29.87,29.71,5,2,9,0.13
2013-6-8,78.0,66.2,56.9,63.2,58.2,55.8,96,78,58,30.03,29.90,3,1,13,0.15
2013-6-9,78.6,67.4,59.3,67.1,63.1,58.7,98,88,51,30.19,30.10,4,1,12,0.23
2013-6-10,74.6,67.0,62.2,68.0,64.3,59.6,97,91,77,30.11,29.91,8,2,19,0.39
2013-6-11,73.4,66.0,59.0,64.8,61.0,57.9,97,85,70,30.02,29.93,5,2,22,0.22
2013-6-12,83.6,72.0,63.4,72.8,66.8,60.7,97,84,65,30.03,29.86,5,2,13,0.00
2013-6-13,83.0,72.5,63.4,69.6,65.3,58.7,97,79,56,29.97,29.69,9,5,15,0.12
2013-6-14,71.4,63.8,55.7,57.4,54.6,52.4,89,73,56,30.08,29.88,5,2,9,0.00
2013-6-15,74.8,61.5,50.5,59.3,54.9,49.7,98,82,51,30.24,30.17,5,2,10,0.00
2013-6-16,78.6,76.1,71.7,67.0,64.6,62.3,78,68,60,30.18,30.09,5,4,12,0.00
2013-6-17,80.0,68.8,63.5,68.2,64.7,62.1,97,88,61,30.10,30.01,4,1,5,0.03
2013-6-18,70.3,64.3,57.3,66.7,62.2,56.3,97,93,82,30.03,29.91,3,1,6,1.18
2013-6-19,74.9,62.9,57.3,64.9,60.3,56.7,98,92,68,30.24,30.02,4,1,4,0.01
2013-6-20,73.2,65.9,61.1,65.7,62.5,60.1,97,89,75,30.34,30.24,4,1,10,0.00
2013-6-21,76.8,67.4,55.0,65.9,61.1,54.4,98,82,66,30.37,30.30,4,1,6,0.00
2013-6-22,77.5,75.0,73.1,66.1,63.2,61.4,72,67,62,30.35,30.24,4,2,5,0.00
2013-6-23,79.9,70.7,60.1,68.9,65.6,59.2,97,85,68,30.30,30.20,3,1,6,0.09
2013-6-24,81.6,78.3,75.7,69.4,67.6,65.3,80,70,60,30.29,30.21,4,2,5,0.01
2013-6-26,82.9,71.8,62.0,71.7,66.9,61.4,98,85,65,30.09,30.01,7,2,9,0.06
2013-6-27,76.0,69.7,61.9,70.2,66.1,61.0,98,89,76,29.91,29.82,5,3,11,0.09
2013-6-28,79.9,76.9,73.6,70.3,68.8,67.6,85,76,67,29.78,29.74,6,4,10,0.01
2013-6-29,79.1,66.6,57.6,66.7,61.9,56.3,98,86,60,29.75,29.68,4,1,6,0.00
2013-6-30,80.0,69.8,58.9,69.6,64.4,57.8,97,84,63,29.88,29.80,3,1,7,0.03
2013-7-1,75.7,72.9,68.4,68.7,67.1,66.1,93,82,73,30.05,29.97,3,2,8,0.04
2013-7-2,73.9,67.5,65.3,69.8,65.7,63.7,97,94,85,30.25,30.16,3,1,5,2.45
2013-7-3,71.7,68.0,66.0,69.8,67.0,65.4,98,97,91,30.32,30.23,3,0,5,3.25
2013-7-4,78.8,70.5,64.8,71.3,67.8,64.2,98,92,73,30.34,30.26,5,2,7,1.49
2013-7-5,78.9,75.3,71.7,72.2,69.8,68.0,93,83,76,30.33,30.26,4,2,7,0.10
2013-7-6,79.5,66.5,61.5,70.1,64.9,60.6,98,95,72,30.31,30.22,2,0,8,0.00
2013-7-7,80.3,73.8,68.0,72.5,68.9,64.9,95,85,74,30.22,30.17,4,2,10,0.01
2013-7-8,77.0,68.9,61.9,68.2,64.6,61.3,98,87,67,30.28,30.21,4,1,8,0.00
2013-7-9,85.5,76.9,67.3,71.8,68.1,63.8,96,75,53,30.24,30.14,2,0,3,0.00
2013-7-10,83.1,76.3,68.2,73.6,70.4,66.1,95,83,66,30.13,30.04,6,2,9,0.25
2013-7-11,79.2,71.2,66.2,71.2,68.2,65.2,98,91,73,30.04,29.97,3,1,9,0.03
2013-7-12,71.7,67.8,64.5,65.5,63.8,62.0,97,87,78,30.09,29.98,5,2,9,0.04
2013-7-13,69.5,66.4,62.9,67.5,65.3,62.0,98,96,91,30.29,30.16,5,3,8,0.05
2013-7-14,78.4,70.7,66.2,71.2,67.5,65.2,98,90,73,30.42,30.28,7,3,12,0.24
2013-7-15,82.2,77.1,67.3,71.2,69.4,65.8,95,78,65,30.44,30.35,3,1,5,0.14
2013-7-16,88.2,75.6,60.9,74.0,67.5,60.3,99,78,55,30.40,30.31,3,1,5,0.01
2013-7-17,85.9,75.8,67.9,73.8,70.5,66.6,97,85,65,30.35,30.24,3,1,8,0.18
2013-7-18,84.5,75.3,64.2,75.1,71.1,63.6,99,88,63,30.26,30.15,2,0,3,0.01
2013-7-19,86.5,77.2,64.8,73.9,69.6,64.5,99,79,59,30.16,30.07,3,1,4,0.00
2013-7-20,82.9,73.7,68.2,73.3,69.3,66.8,97,87,65,30.07,29.97,4,1,11,0.04
2013-7-21,80.4,74.1,67.5,73.1,69.4,66.0,97,86,65,30.07,30.01,3,1,11,0.08
2013-7-22,81.8,74.1,65.7,71.6,68.5,64.8,97,83,68,30.05,29.89,4,1,7,0.01
2013-7-23,79.7,74.0,63.9,70.6,67.4,62.7,96,81,65,29.91,29.83,4,2,8,0.03
2013-7-24,78.5,69.0,64.4,66.7,64.1,62.3,99,86,60,29.98,29.86,3,0,7,0.01
2013-7-25,74.5,66.1,58.5,64.7,61.3,57.3,97,85,68,30.06,29.99,3,1,6,0.59
2013-7-26,78.0,71.8,64.4,67.9,64.3,61.7,94,78,64,30.22,30.13,4,1,9,0.00
2013-7-27,68.3,65.2,63.4,66.1,64.0,62.5,97,96,91,30.10,30.02,3,1,5,0.79
2013-7-28,77.0,64.8,57.8,68.1,61.9,57.0,98,91,64,30.12,30.03,2,0,6,0.00
2013-7-29,74.6,68.9,58.9,61.0,57.3,54.2,97,68,54,30.25,30.12,4,2,9,0.01
2013-7-30,75.2,69.8,63.4,65.9,61.6,55.9,91,76,67,30.37,30.28,2,0,4,0.00
2013-7-31,63.3,61.7,61.0,62.7,61.1,60.3,98,98,98,30.26,30.25,0,0,6,0.02
2013-8-2,76.9,75.5,73.1,66.2,62.4,60.4,79,64,58,30.11,30.10,4,2,6,0.01
2013-8-3,78.5,70.4,57.5,68.7,64.1,56.9,99,82,68,30.11,30.05,4,1,4,0.00
2013-8-4,75.6,72.0,66.7,63.4,60.9,58.6,87,69,59,30.11,30.08,4,2,9,0.01
2013-8-5,70.7,62.4,52.6,66.3,58.3,51.8,98,87,67,30.21,30.11,4,1,7,0.00
2013-8-6,77.1,70.2,62.3,70.2,66.0,61.6,99,87,71,30.12,30.08,2,0,4,0.00
2013-8-7,73.1,70.1,67.6,71.0,67.9,66.0,96,93,88,30.15,30.11,2,1,5,0.04
2013-8-8,79.6,72.6,66.7,72.5,68.4,64.0,93,87,77,30.14,30.09,3,1,6,0.00
2013-8-9,82.7,79.0,72.5,73.8,71.8,68.8,89,79,70,30.11,30.05,5,3,9,0.00
2013-8-10,79.8,73.9,67.6,71.2,68.6,66.1,96,84,71,30.14,30.11,4,1,8,0.00
2013-8-11,81.1,72.4,64.5,72.0,68.1,63.8,99,87,70,30.21,30.11,4,2,9,0.01
2013-8-12,81.2,76.0,67.9,71.8,68.2,65.9,96,78,61,30.14,30.05,4,1,8,0.59
2013-8-13,75.5,71.9,63.3,69.8,66.9,61.5,94,84,78,29.97,29.90,4,2,7,0.10
2013-8-14,66.2,61.8,52.3,55.5,52.5,49.3,90,73,55,30.23,30.09,3,2,5,0.00
2013-8-15,69.6,58.7,47.1,57.3,52.3,45.7,97,81,61,30.30,30.22,4,1,5,0.00
2013-8-16,69.1,64.1,52.5,59.1,56.5,51.3,96,77,67,30.32,30.25,4,1,6,0.00
2013-8-17,60.9,56.0,48.9,59.7,55.2,48.3,99,97,91,30.34,30.30,6,2,10,0.47
2013-8-18,70.0,61.8,59.3,65.3,60.6,58.4,98,96,84,30.34,30.26,3,0,5,0.51
2013-8-19,72.1,64.8,61.4,67.3,63.5,61.0,99,96,81,30.27,30.23,2,0,4,0.23
2013-8-20,78.3,74.2,65.3,70.3,68.2,64.4,97,82,71,30.29,30.22,4,1,7,0.01
2013-8-21,77.9,73.8,69.9,71.5,69.5,67.1,95,86,77,30.32,30.22,2,0,5,0.18
2013-8-22,78.3,75.0,65.7,69.6,67.9,63.7,94,79,72,30.24,30.11,4,2,8,0.00
2013-8-23,77.5,72.7,62.0,69.7,67.2,60.3,94,83,71,30.20,30.06,4,2,12,0.01
2013-8-24,71.6,62.5,52.3,59.6,56.3,51.8,99,82,61,30.38,30.28,5,1,8,0.00
2013-8-25,74.3,64.8,50.9,62.5,55.5,50.6,99,75,50,30.52,30.42,3,1,5,0.00
2013-8-26,77.7,65.1,48.3,64.1,57.8,47.8,99,80,57,30.42,30.26,3,1,7,0.00
2013-8-27,78.8,73.7,66.2,69.7,68.0,64.4,96,83,72,30.17,30.09,6,2,8,0.01
2013-8-28,79.3,73.6,69.3,71.2,69.1,66.6,95,86,74,30.10,29.97,3,1,5,0.00
2013-8-29,81.4,74.3,68.8,71.8,69.3,67.0,95,85,71,30.08,29.96,4,2,9,0.00
2013-8-30,75.0,68.2,63.1,68.7,65.4,61.9,98,91,79,30.14,30.02,2,0,6,0.00
2013-8-31,70.6,66.6,63.6,67.8,64.1,61.9,95,92,88,30.03,29.93,1,0,1,0.18
2013-9-1,79.6,69.3,61.5,70.8,66.2,60.9,99,90,70,29.98,29.92,3,1,13,0.15
2013-9-2,80.2,73.7,65.0,71.1,67.8,63.6,97,83,68,29.99,29.90,4,1,6,0.01
2013-9-3,78.6,76.5,73.4,68.0,66.6,64.9,82,72,64,30.00,29.95,4,3,8,0.00
2013-9-4,76.4,62.8,49.7,61.3,56.0,49.2,98,81,50,30.23,30.15,3,1,7,0.01
2013-9-5,76.9,74.0,68.6,62.8,59.7,55.1,76,62,48,30.25,30.19,4,3,8,0.01
2013-9-6,74.8,63.3,52.3,61.5,57.8,51.4,98,83,61,30.31,30.22,3,1,7,0.00
2013-9-7,78.4,65.2,48.1,62.9,56.2,47.6,98,76,52,30.25,30.10,4,1,11,0.00
2013-9-8,79.0,70.2,58.0,68.6,63.3,56.6,95,80,62,30.10,30.04,2,0,11,0.00
2013-9-9,75.3,69.6,63.8,68.6,65.9,63.2,98,89,77,30.26,30.22,4,2,5,0.00
2013-9-10,74.5,65.2,60.4,68.6,64.2,59.8,99,97,81,30.34,30.29,2,0,5,0.29
2013-9-11,82.6,74.1,62.9,72.2,68.6,62.3,99,84,63,30.31,30.18,4,1,6,0.29
2013-9-12,79.6,74.1,66.2,71.4,68.8,63.6,97,84,75,30.08,29.93,4,2,7,0.02
2013-9-13,69.1,66.4,54.6,57.6,52.0,48.2,83,60,51,29.97,29.91,5,3,8,0.00
2013-9-14,67.9,54.6,40.4,51.8,45.1,39.2,97,74,46,30.21,30.08,3,0,6,0.00
2013-9-15,71.5,55.3,43.1,59.0,50.6,42.6,98,86,61,30.36,30.26,3,0,3,0.00
2013-9-16,68.9,60.3,48.3,61.7,56.3,47.3,97,87,75,30.35,30.21,4,1,9,0.01
2013-9-17,63.7,51.2,41.5,53.4,48.6,41.0,99,91,68,30.49,30.35,6,1,9,0.00
2013-9-18,63.7,53.9,45.5,57.6,50.6,44.3,98,89,77,30.45,30.31,1,0,4,0.00
2013-9-19,61.3,57.6,56.6,59.6,56.2,54.9,96,95,94,30.29,30.26,2,0,4,0.00
2013-9-20,62.3,62.3,62.3,61.7,61.7,61.6,98,98,98,30.05,30.04,1,0,1,0.14
2013-9-21,65.3,61.9,56.7,64.2,61.0,55.9,98,97,95,30.05,29.81,3,1,6,0.34
2013-9-22,67.1,60.4,50.1,56.1,53.5,48.7,96,79,61,30.05,29.95,3,1,8,0.00
2013-9-23,67.6,58.4,48.4,57.1,52.5,47.9,98,82,61,30.17,30.13,3,1,6,0.00
2013-9-24,71.4,63.5,53.3,60.1,56.9,52.5,97,80,61,30.16,30.08,3,1,5,0.01
2013-9-25,64.7,57.4,49.2,60.3,55.3,48.9,99,93,76,30.07,29.99,3,0,5,0.04
2013-9-26,68.5,58.8,53.4,58.7,55.0,52.8,99,89,60,30.12,30.03,5,1,9,0.00
2013-9-27,67.6,55.2,44.1,56.9,50.4,43.6,99,85,63,30.29,30.20,3,1,6,0.00
2013-10-1,69.6,66.6,60.2,59.0,57.8,56.0,87,74,66,30.19,30.18,2,1,6,0.01
2013-10-2,74.5,65.8,51.2,62.4,58.2,50.5,98,78,61,30.28,30.19,4,2,8,0.01
2013-10-3,75.2,72.0,66.7,65.0,62.7,60.6,92,73,61,30.26,30.19,2,0,3,0.00
2013-10-4,80.1,74.2,68.7,65.4,63.6,59.6,84,70,54,30.27,30.18,5,2,8,0.01
2013-10-5,80.3,68.5,54.1,66.7,61.6,53.5,99,81,57,30.25,30.16,3,1,6,0.00
2013-10-6,76.3,72.2,59.8,66.1,62.5,57.5,93,72,61,30.14,30.01,4,2,11,0.01
2013-10-7,61.8,59.3,55.7,61.2,56.8,50.6,98,92,73,30.00,29.87,6,2,10,1.21
2013-10-8,60.0,52.3,41.7,49.0,45.3,40.6,96,78,62,30.39,30.17,6,2,10,0.00
2013-10-9,61.4,51.8,44.8,47.5,43.9,40.3,92,76,48,30.41,30.31,5,1,9,0.00
2013-10-10,59.8,50.3,45.9,57.6,49.2,44.5,98,96,92,30.25,30.18,3,2,8,0.11
2013-10-11,64.1,60.9,58.5,59.1,57.5,56.0,92,89,83,30.10,30.06,3,1,8,0.00
2013-10-12,61.5,60.7,59.7,59.5,58.8,58.0,96,93,92,30.17,30.15,1,0,4,0.01
2013-10-13,62.2,59.9,58.3,59.4,58.3,57.1,97,94,90,30.34,30.30,3,1,5,0.03
2013-10-14,63.8,61.0,56.1,59.0,57.6,54.1,95,89,83,30.37,30.29,3,1,3,0.27
2013-10-15,62.3,48.8,42.6,54.4,46.9,42.1,99,93,68,30.33,30.22,3,0,7,0.00
2013-10-16,66.8,61.4,53.5,58.3,55.9,52.7,97,83,67,30.16,30.08,3,1,8,0.00
2013-10-17,64.2,61.8,59.9,62.0,60.1,57.5,97,94,92,30.00,29.91,3,1,6,0.16
2013-10-18,60.8,55.9,48.8,49.2,44.8,42.6,84,67,55,30.15,30.09,5,2,9,0.00
2013-10-19,59.7,52.0,47.0,55.7,47.6,44.3,99,86,66,30.07,29.96,5,1,6,0.00
2013-10-20,55.5,50.1,45.0,38.7,36.6,34.5,72,60,47,30.22,30.18,3,2,8,0.00
2013-10-22,58.7,53.6,47.3,48.7,47.3,45.4,94,80,68,30.08,29.93,6,3,8,0.03
2013-10-23,49.5,43.5,34.5,44.3,39.3,30.9,98,86,68,30.11,29.82,9,4,18,0.13
2013-10-24,42.0,35.5,28.5,33.2,30.8,27.0,95,83,69,30.35,30.16,6,2,13,0.00
2013-10-25,40.4,36.0,25.0,30.6,27.2,22.5,91,71,59,30.54,30.47,5,3,14,0.01
2013-10-26,52.4,42.1,20.5,32.0,28.6,19.3,96,62,39,30.46,30.22,6,2,10,0.00
2013-10-27,58.7,50.6,37.8,40.8,38.4,35.1,93,64,47,30.26,30.17,6,3,19,0.01
2013-10-28,51.8,50.1,48.3,50.2,49.0,47.8,98,96,90,30.42,30.39,1,0,3,0.01
2013-10-29,62.0,59.1,51.4,54.0,51.6,49.4,93,77,68,30.47,30.38,3,1,6,0.00
2013-10-30,65.2,60.5,53.7,58.8,56.5,52.9,97,87,76,30.37,30.27,4,2,11,0.15
2013-10-31,63.0,61.5,59.3,56.0,54.8,53.3,81,79,76,30.20,30.03,5,3,9,0.00
2013-11-1,69.5,62.8,49.3,54.9,52.3,44.4,92,69,55,29.83,29.74,6,2,7,0.13
2013-11-2,57.1,50.2,43.6,43.7,38.2,33.4,89,65,45,30.07,29.86,7,4,19,0.00
2013-11-3,49.9,42.1,34.4,37.2,33.4,30.8,87,72,55,30.50,30.31,5,1,14,0.00
2013-11-4,47.1,41.3,35.7,32.3,30.3,27.3,73,65,55,30.71,30.63,5,2,7,0.00
2013-11-5,51.4,38.6,28.8,45.1,34.0,25.4,94,83,76,30.73,30.62,3,0,4,0.00
2013-11-6,63.2,51.8,45.4,51.0,47.1,44.2,98,85,62,30.56,30.27,3,1,7,0.01
2013-11-7,54.9,46.5,38.2,52.6,40.4,30.2,93,80,67,30.22,30.08,11,5,18,0.01
2013-11-8,43.2,37.9,29.1,28.4,24.8,22.7,81,60,45,30.46,30.39,8,3,12,0.00
2013-11-9,49.3,35.7,22.8,29.9,26.1,20.6,94,71,47,30.52,30.34,4,1,6,0.00
2013-11-10,57.9,50.6,38.9,37.3,29.1,23.0,66,45,32,30.37,30.23,9,6,16,0.00
2013-11-11,53.9,38.0,26.3,29.5,26.0,22.2,89,64,34,30.46,30.29,2,1,6,0.00
2013-11-12,47.5,35.2,24.4,34.0,24.4,16.7,78,65,45,30.53,30.16,6,3,11,0.00
2013-11-13,36.1,32.5,25.3,17.4,15.1,13.4,71,49,40,30.69,30.65,6,3,10,0.00
2013-11-14,53.3,36.2,20.6,20.7,14.3,7.8,82,46,22,30.62,30.49,6,2,11,0.00
2013-11-15,58.6,42.8,28.0,43.3,23.8,16.7,96,52,20,30.48,30.37,6,1,16,0.27
2013-11-16,54.6,49.5,42.3,52.6,48.4,40.7,98,96,92,30.40,30.33,2,0,4,0.00
2013-11-17,58.6,56.1,53.0,57.6,54.7,52.5,98,95,88,30.25,29.93,5,1,9,0.03
2013-11-18,58.9,54.1,49.1,57.8,41.4,28.4,96,64,35,30.01,29.90,8,5,15,0.13
2013-11-19,44.1,35.2,29.1,27.2,25.8,24.8,87,70,48,30.45,30.11,7,2,13,0.00
2013-11-20,39.3,34.7,31.6,26.0,24.7,23.0,77,67,58,30.64,30.56,7,4,11,0.00
2013-11-21,51.7,45.1,34.5,46.8,41.8,32.0,93,88,83,30.67,30.55,2,0,6,0.00
2013-11-22,64.6,59.9,53.8,55.4,54.2,52.4,96,82,70,30.41,30.20,6,2,8,0.01
2013-11-23,43.5,39.6,28.9,36.2,29.6,18.3,89,68,46,30.31,30.18,10,5,17,0.00
2013-11-24,24.4,20.6,14.7,8.0,4.8,2.0,68,51,41,30.71,30.56,8,4,14,0.00
2013-11-25,35.7,24.6,11.9,11.9,9.4,6.5,84,54,33,30.72,30.55,2,0,7,0.00
2013-11-26,41.4,36.4,30.2,40.9,35.5,28.2,98,96,92,30.44,29.81,4,1,8,1.49
2013-11-27,28.2,24.4,19.4,26.6,19.8,11.7,94,83,71,30.24,29.79,13,9,22,0.00
2013-11-28,33.9,28.2,21.4,20.6,18.3,15.5,86,67,48,30.64,30.55,6,2,27,0.00
2013-11-29,40.3,30.9,19.7,25.8,21.3,17.4,91,68,52,30.82,30.65,5,2,8,0.00
2013-11-30,36.7,30.4,21.5,24.7,22.6,18.2,89,73,60,30.80,30.58,4,1,8,0.00
2013-12-1,49.0,36.0,18.8,30.1,25.4,16.9,94,68,42,30.49,30.21,6,2,9,0.00
2013-12-2,47.8,42.6,30.2,38.1,35.8,25.5,90,77,66,30.21,29.99,1,0,3,0.00
2013-12-3,55.5,49.3,43.0,45.1,43.3,39.6,97,81,65,30.11,30.01,3,1,5,0.00
2013-12-4,61.7,54.6,47.5,52.8,50.3,46.5,97,86,72,30.18,30.08,2,1,4,0.00
2013-12-5,65.0,61.1,57.0,58.5,57.2,55.9,96,87,76,30.18,30.08,3,1,6,0.00
2013-12-6,65.8,60.6,44.4,62.6,57.9,43.3,97,91,84,30.12,29.98,5,3,20,0.47
2013-12-7,36.7,33.5,30.2,34.0,31.0,28.3,94,91,87,30.60,30.41,5,2,8,0.02
2013-12-8,32.0,27.3,24.4,31.0,26.1,23.2,97,95,93,30.59,30.45,5,2,11,0.00
2013-12-9,47.2,39.7,33.1,45.6,39.0,32.3,99,97,94,30.32,30.21,4,1,7,0.04
2013-12-10,34.9,29.3,25.4,33.9,24.6,18.6,96,83,75,30.40,30.10,10,5,18,0.44
2013-12-11,41.5,35.4,28.0,21.3,18.3,15.5,72,51,38,30.59,30.45,5,3,10,0.00
2013-12-12,28.6,25.5,22.1,16.8,14.0,5.3,76,63,37,30.55,30.50,6,4,10,0.00
2013-12-13,36.9,28.4,22.9,24.2,16.6,12.0,75,61,47,30.53,30.44,5,2,9,0.00
2013-12-14,34.6,32.9,31.6,31.3,29.0,25.5,95,86,72,30.38,30.07,5,2,8,0.17
2013-12-15,34.4,33.4,32.1,30.1,29.0,27.3,85,84,81,30.05,30.02,9,6,17,0.01
2013-12-16,41.6,36.3,28.6,32.1,30.1,26.3,92,78,65,30.32,30.25,6,2,11,0.00
2013-12-17,49.3,39.3,32.6,35.2,32.0,29.7,90,76,57,30.26,30.08,7,4,15,0.04
2013-12-18,36.8,29.9,23.2,21.4,19.4,16.9,82,66,45,30.44,30.21,7,3,12,0.00
2013-12-19,55.4,47.2,40.6,29.8,27.4,24.3,62,47,32,30.45,30.32,4,2,6,0.03
2013-12-20,58.5,52.4,43.5,38.3,32.8,26.2,78,49,35,30.30,30.20,5,2,11,0.00
2013-12-21,61.2,57.0,49.3,56.8,52.8,45.6,92,86,79,30.20,30.11,8,4,11,0.00
2013-12-22,63.9,58.2,54.4,60.6,56.5,52.9,97,94,80,30.14,30.01,7,3,17,0.36
2013-12-23,51.1,45.6,39.5,50.3,43.7,36.6,97,93,87,30.21,30.13,7,4,15,0.74
2013-12-24,31.1,26.6,17.2,24.1,19.3,9.0,88,74,64,30.59,30.37,8,5,14,0.00
2013-12-25,32.2,23.4,11.1,11.9,10.3,8.2,88,60,38,30.64,30.59,2,0,5,0.00
2013-12-26,40.1,32.0,22.7,26.8,22.5,18.0,83,68,50,30.57,30.44,11,3,20,0.00
2013-12-27,45.0,35.5,22.6,22.9,20.3,18.3,85,57,36,30.63,30.53,4,1,6,0.00
2013-12-28,53.5,44.9,39.1,36.9,25.5,18.1,91,50,26,30.54,30.35,5,1,7,0.05
2013-12-29,45.2,42.1,38.6,43.4,40.1,34.4,97,93,84,30.04,29.83,7,4,13,0.52
2013-12-30,39.5,34.8,28.3,35.4,31.5,25.5,91,87,84,30.28,30.04,7,2,16,0.00
2013-12-31,37.4,31.7,27.3,24.7,21.2,17.5,85,66,48,30.51,30.27,9,3,16,0.00
2014-1-1,45.7,36.4,26.2,26.2,22.8,16.9,87,61,32,30.55,30.27,4,1,8,0.00
2014-1-2,40.7,33.4,27.1,36.1,27.5,23.9,90,79,66,30.27,29.85,2,0,3,0.05